sensor_id;sensor_type;location;lat;lon;timestamp;P1;durP1;ratioP1;P2;durP2;ratioP2
59986;SDS011;46181;51.498;5.392;2023-02-21T00:02:18;39.588;;;19.196;;
59986;SDS011;46181;51.498;5.392;2023-02-21T00:06:48;41.22;;;19.12;;
59986;SDS011;46181;51.498;5.392;2023-02-21T00:11:18;41.808;;;19.364;;
59986;SDS011;46181;51.498;5.392;2023-02-21T00:15:49;41.788;;;18.808;;
59986;SDS011;46181;51.498;5.392;2023-02-21T00:20:18;40.58401;;;18.74;;
59986;SDS011;46181;51.498;5.392;2023-02-21T00:24:48;42.26001;;;19.616;;
59986;SDS011;46181;51.498;5.392;2023-02-21T00:29:18;42.408;;;19.716;;
59986;SDS011;46181;51.498;5.392;2023-02-21T00:33:48;40.788;;;19.06;;
59986;SDS011;46181;51.498;5.392;2023-02-21T00:38:18;43.964;;;19.396;;
59986;SDS011;46181;51.498;5.392;2023-02-21T00:42:48;43.044;;;19.792;;
59986;SDS011;46181;51.498;5.392;2023-02-21T00:47:18;45.11199;;;19.84;;
59986;SDS011;46181;51.498;5.392;2023-02-21T00:51:48;44.86;;;20.14;;
59986;SDS011;46181;51.498;5.392;2023-02-21T00:56:18;48.848;;;20.872;;
59986;SDS011;46181;51.498;5.392;2023-02-21T01:00:48;46.124;;;19.948;;
59986;SDS011;46181;51.498;5.392;2023-02-21T01:05:18;44.548;;;20.3;;
59986;SDS011;46181;51.498;5.392;2023-02-21T01:09:48;52.34399;;;21.724;;
59986;SDS011;46181;51.498;5.392;2023-02-21T01:14:18;48.348;;;20.156;;
59986;SDS011;46181;51.498;5.392;2023-02-21T01:18:48;52.04801;;;22.116;;
59986;SDS011;46181;51.498;5.392;2023-02-21T01:23:18;54.31599;;;22.436;;
59986;SDS011;46181;51.498;5.392;2023-02-21T01:27:48;54.264;;;23.672;;
59986;SDS011;46181;51.498;5.392;2023-02-21T01:32:18;53.248;;;22.524;;
59986;SDS011;46181;51.498;5.392;2023-02-21T01:36:48;57.392;;;23.784;;
59986;SDS011;46181;51.498;5.392;2023-02-21T01:41:18;58.612;;;23.48;;
59986;SDS011;46181;51.498;5.392;2023-02-21T01:45:49;58.12001;;;24.18;;
59986;SDS011;46181;51.498;5.392;2023-02-21T01:54:48;52.98801;;;22.252;;
59986;SDS011;46181;51.498;5.392;2023-02-21T01:59:18;56.668;;;22.912;;
59986;SDS011;46181;51.498;5.392;2023-02-21T02:03:48;50.65601;;;21.968;;
59986;SDS011;46181;51.498;5.392;2023-02-21T02:08:19;50.388;;;21.056;;
59986;SDS011;46181;51.498;5.392;2023-02-21T02:13:08;47.95201;;;20.156;;
59986;SDS011;46181;51.498;5.392;2023-02-21T02:17:20;51.356;;;21.312;;
59986;SDS011;46181;51.498;5.392;2023-02-21T02:30:55;50.552;;;21.024;;
59986;SDS011;46181;51.498;5.392;2023-02-21T02:35:18;48.576;;;20.564;;
59986;SDS011;46181;51.498;5.392;2023-02-21T02:39:50;47.1;;;20.204;;
59986;SDS011;46181;51.498;5.392;2023-02-21T02:44:19;57.356;;;22.824;;
59986;SDS011;46181;51.498;5.392;2023-02-21T02:48:49;57.124;;;22.248;;
59986;SDS011;46181;51.498;5.392;2023-02-21T02:53:19;53.888;;;21.432;;
59986;SDS011;46181;51.498;5.392;2023-02-21T02:57:48;52.84;;;20.808;;
59986;SDS011;46181;51.498;5.392;2023-02-21T03:02:22;50.52799;;;20.032;;
59986;SDS011;46181;51.498;5.392;2023-02-21T03:06:49;50.264;;;20.02;;
59986;SDS011;46181;51.498;5.392;2023-02-21T03:11:18;50.192;;;20.412;;
59986;SDS011;46181;51.498;5.392;2023-02-21T03:15:51;53.53199;;;20.632;;
59986;SDS011;46181;51.498;5.392;2023-02-21T03:20:18;61.856;;;21.688;;
59986;SDS011;46181;51.498;5.392;2023-02-21T03:24:48;51.45201;;;21.248;;
59986;SDS011;46181;51.498;5.392;2023-02-21T03:29:18;52.9;;;21.128;;
59986;SDS011;46181;51.498;5.392;2023-02-21T03:33:48;54.424;;;20.156;;
59986;SDS011;46181;51.498;5.392;2023-02-21T03:38:18;53.112;;;20.48;;
59986;SDS011;46181;51.498;5.392;2023-02-21T03:42:48;50.612;;;19.472;;
59986;SDS011;46181;51.498;5.392;2023-02-21T03:47:18;49.67601;;;19.7;;
59986;SDS011;46181;51.498;5.392;2023-02-21T03:51:48;49.356;;;19.712;;
59986;SDS011;46181;51.498;5.392;2023-02-21T03:56:18;54.62;;;20.284;;
59986;SDS011;46181;51.498;5.392;2023-02-21T04:00:48;55.764;;;20.096;;
59986;SDS011;46181;51.498;5.392;2023-02-21T04:05:18;52.24;;;20.056;;
59986;SDS011;46181;51.498;5.392;2023-02-21T04:09:48;52.53601;;;19.628;;
59986;SDS011;46181;51.498;5.392;2023-02-21T04:14:18;53.09199;;;19.408;;
59986;SDS011;46181;51.498;5.392;2023-02-21T04:18:48;56.208;;;19.44;;
59986;SDS011;46181;51.498;5.392;2023-02-21T04:23:19;54.68;;;19.876;;
59986;SDS011;46181;51.498;5.392;2023-02-21T04:27:48;54.89601;;;20.168;;
59986;SDS011;46181;51.498;5.392;2023-02-21T04:32:18;50.2;;;19.544;;
59986;SDS011;46181;51.498;5.392;2023-02-21T04:36:48;55.98;;;20.144;;
59986;SDS011;46181;51.498;5.392;2023-02-21T04:41:18;62.93599;;;20.3;;
59986;SDS011;46181;51.498;5.392;2023-02-21T04:45:48;52.128;;;18.26;;
59986;SDS011;46181;51.498;5.392;2023-02-21T04:50:18;56.096;;;19.512;;
59986;SDS011;46181;51.498;5.392;2023-02-21T04:54:48;59.136;;;20.372;;
59986;SDS011;46181;51.498;5.392;2023-02-21T04:59:18;57.4;;;19.752;;
59986;SDS011;46181;51.498;5.392;2023-02-21T05:03:48;54.856;;;19.98;;
59986;SDS011;46181;51.498;5.392;2023-02-21T05:08:18;58.41201;;;19.32;;
59986;SDS011;46181;51.498;5.392;2023-02-21T05:12:48;53.572;;;19.088;;
59986;SDS011;46181;51.498;5.392;2023-02-21T05:17:18;69.604;;;18.836;;
59986;SDS011;46181;51.498;5.392;2023-02-21T05:21:48;61.46;;;18.78;;
59986;SDS011;46181;51.498;5.392;2023-02-21T05:26:18;53.34401;;;18.616;;
59986;SDS011;46181;51.498;5.392;2023-02-21T05:30:48;56.288;;;19.484;;
59986;SDS011;46181;51.498;5.392;2023-02-21T05:35:18;56.492;;;19.248;;
59986;SDS011;46181;51.498;5.392;2023-02-21T05:39:48;48.89999;;;18.964;;
59986;SDS011;46181;51.498;5.392;2023-02-21T05:44:18;117.32;;;19.876;;
59986;SDS011;46181;51.498;5.392;2023-02-21T05:48:48;53.208;;;17.584;;
59986;SDS011;46181;51.498;5.392;2023-02-21T05:53:18;54.65599;;;17.568;;
59986;SDS011;46181;51.498;5.392;2023-02-21T05:57:48;52.91999;;;18.092;;
59986;SDS011;46181;51.498;5.392;2023-02-21T06:02:18;50.12001;;;17.704;;
59986;SDS011;46181;51.498;5.392;2023-02-21T06:06:48;49.124;;;17.244;;
59986;SDS011;46181;51.498;5.392;2023-02-21T06:11:20;50.392;;;17.228;;
59986;SDS011;46181;51.498;5.392;2023-02-21T06:15:48;48.776;;;18.052;;
59986;SDS011;46181;51.498;5.392;2023-02-21T06:20:18;98.51999;;;17.636;;
59986;SDS011;46181;51.498;5.392;2023-02-21T06:24:48;39.372;;;14.904;;
59986;SDS011;46181;51.498;5.392;2023-02-21T06:29:18;41.052;;;15.148;;
59986;SDS011;46181;51.498;5.392;2023-02-21T06:33:48;35.016;;;14.656;;
59986;SDS011;46181;51.498;5.392;2023-02-21T06:38:18;33.056;;;13.44;;
59986;SDS011;46181;51.498;5.392;2023-02-21T06:42:48;31.4;;;12.216;;
59986;SDS011;46181;51.498;5.392;2023-02-21T06:47:18;29.472;;;11.756;;
59986;SDS011;46181;51.498;5.392;2023-02-21T06:51:48;29.308;;;11.616;;
59986;SDS011;46181;51.498;5.392;2023-02-21T06:56:18;30.976;;;11.876;;
59986;SDS011;46181;51.498;5.392;2023-02-21T07:00:48;24.78;;;10.148;;
59986;SDS011;46181;51.498;5.392;2023-02-21T07:05:18;28.576;;;11.18;;
59986;SDS011;46181;51.498;5.392;2023-02-21T07:09:48;28.136;;;11.636;;
59986;SDS011;46181;51.498;5.392;2023-02-21T07:14:18;29.068;;;11.588;;
59986;SDS011;46181;51.498;5.392;2023-02-21T07:18:48;30.552;;;11.476;;
59986;SDS011;46181;51.498;5.392;2023-02-21T07:23:18;29.40001;;;11.312;;
59986;SDS011;46181;51.498;5.392;2023-02-21T07:27:49;33.444;;;11.516;;
59986;SDS011;46181;51.498;5.392;2023-02-21T07:32:18;30.012;;;11.448;;
59986;SDS011;46181;51.498;5.392;2023-02-21T07:36:48;32.36;;;11.028;;
59986;SDS011;46181;51.498;5.392;2023-02-21T07:41:18;31.152;;;11.3;;
59986;SDS011;46181;51.498;5.392;2023-02-21T07:45:48;30.34;;;11.512;;
59986;SDS011;46181;51.498;5.392;2023-02-21T07:54:48;27.86;;;10.96;;
59986;SDS011;46181;51.498;5.392;2023-02-21T07:59:18;22.592;;;9.936;;
59986;SDS011;46181;51.498;5.392;2023-02-21T08:03:48;23.1;;;8.868;;
59986;SDS011;46181;51.498;5.392;2023-02-21T08:08:18;21.092;;;8.171998;;
59986;SDS011;46181;51.498;5.392;2023-02-21T08:12:48;22.096;;;8.36;;
59986;SDS011;46181;51.498;5.392;2023-02-21T08:17:18;21.468;;;8.655998;;
59986;SDS011;46181;51.498;5.392;2023-02-21T08:21:48;24.968;;;9.091999;;
59986;SDS011;46181;51.498;5.392;2023-02-21T08:26:18;20.644;;;9.084;;
59986;SDS011;46181;51.498;5.392;2023-02-21T08:30:48;22.884;;;9.604;;
59986;SDS011;46181;51.498;5.392;2023-02-21T08:35:18;23.164;;;9.080001;;
59986;SDS011;46181;51.498;5.392;2023-02-21T08:39:49;21.992;;;9.451999;;
59986;SDS011;46181;51.498;5.392;2023-02-21T08:44:18;21.916;;;9.332;;
59986;SDS011;46181;51.498;5.392;2023-02-21T08:48:48;20.196;;;8.460001;;
59986;SDS011;46181;51.498;5.392;2023-02-21T08:53:18;22.444;;;8.496001;;
59986;SDS011;46181;51.498;5.392;2023-02-21T08:57:48;19.848;;;8.544001;;
59986;SDS011;46181;51.498;5.392;2023-02-21T09:02:19;20.632;;;8.62;;
59986;SDS011;46181;51.498;5.392;2023-02-21T09:06:48;21.664;;;8.215999;;
59986;SDS011;46181;51.498;5.392;2023-02-21T09:11:18;21.94;;;9.127998;;
59986;SDS011;46181;51.498;5.392;2023-02-21T09:15:48;20.972;;;8.551999;;
59986;SDS011;46181;51.498;5.392;2023-02-21T09:20:19;21.5;;;8.608001;;
59986;SDS011;46181;51.498;5.392;2023-02-21T09:24:48;22.708;;;9.332001;;
59986;SDS011;46181;51.498;5.392;2023-02-21T09:29:18;22.364;;;8.612;;
59986;SDS011;46181;51.498;5.392;2023-02-21T09:33:48;19.624;;;9.276;;
59986;SDS011;46181;51.498;5.392;2023-02-21T09:38:18;21.968;;;8.372002;;
59986;SDS011;46181;51.498;5.392;2023-02-21T09:42:48;21.124;;;8.547999;;
59986;SDS011;46181;51.498;5.392;2023-02-21T09:47:21;21.54;;;9.124001;;
59986;SDS011;46181;51.498;5.392;2023-02-21T09:51:48;21.544;;;9.716;;
59986;SDS011;46181;51.498;5.392;2023-02-21T09:56:24;21.068;;;8.44;;
59986;SDS011;46181;51.498;5.392;2023-02-21T10:00:48;23.124;;;9.311997;;
59986;SDS011;46181;51.498;5.392;2023-02-21T10:05:21;20.736;;;9.007998;;
59986;SDS011;46181;51.498;5.392;2023-02-21T10:09:49;22.264;;;8.876001;;
59986;SDS011;46181;51.498;5.392;2023-02-21T10:14:22;23.148;;;9.344;;
59986;SDS011;46181;51.498;5.392;2023-02-21T10:18:51;20.556;;;8.520001;;
59986;SDS011;46181;51.498;5.392;2023-02-21T10:23:20;19.748;;;8.456;;
59986;SDS011;46181;51.498;5.392;2023-02-21T10:27:48;20.648;;;9.056001;;
59986;SDS011;46181;51.498;5.392;2023-02-21T10:32:18;19.64;;;8.556001;;
59986;SDS011;46181;51.498;5.392;2023-02-21T10:36:48;21.568;;;8.735998;;
59986;SDS011;46181;51.498;5.392;2023-02-21T10:41:18;20.56;;;8.780002;;
59986;SDS011;46181;51.498;5.392;2023-02-21T10:45:49;18.128;;;7.871999;;
59986;SDS011;46181;51.498;5.392;2023-02-21T10:50:18;17.86;;;7.579999;;
59986;SDS011;46181;51.498;5.392;2023-02-21T10:54:58;20.6;;;7.839999;;
59986;SDS011;46181;51.498;5.392;2023-02-21T10:59:25;21.656;;;8.688;;
59986;SDS011;46181;51.498;5.392;2023-02-21T11:03:49;18.608;;;8.080001;;
59986;SDS011;46181;51.498;5.392;2023-02-21T11:08:18;17.532;;;7.139999;;
59986;SDS011;46181;51.498;5.392;2023-02-21T11:12:48;17.344;;;7.24;;
59986;SDS011;46181;51.498;5.392;2023-02-21T11:17:19;16.924;;;7.428;;
59986;SDS011;46181;51.498;5.392;2023-02-21T11:21:48;17.724;;;7.576;;
59986;SDS011;46181;51.498;5.392;2023-02-21T11:26:18;17.668;;;7.524;;
59986;SDS011;46181;51.498;5.392;2023-02-21T11:30:50;17.636;;;7.167999;;
59986;SDS011;46181;51.498;5.392;2023-02-21T11:35:24;18.764;;;6.848;;
59986;SDS011;46181;51.498;5.392;2023-02-21T11:39:52;16.38;;;6.932;;
59986;SDS011;46181;51.498;5.392;2023-02-21T11:44:26;18.044;;;7.147999;;
59986;SDS011;46181;51.498;5.392;2023-02-21T11:48:53;19.984;;;8.012001;;
59986;SDS011;46181;51.498;5.392;2023-02-21T11:53:21;17.272;;;7.376;;
59986;SDS011;46181;51.498;5.392;2023-02-21T11:57:50;18.524;;;7.959998;;
59986;SDS011;46181;51.498;5.392;2023-02-21T12:02:25;19.928;;;8.016;;
59986;SDS011;46181;51.498;5.392;2023-02-21T12:06:49;17.872;;;7.02;;
59986;SDS011;46181;51.498;5.392;2023-02-21T12:15:53;17.344;;;7.032001;;
59986;SDS011;46181;51.498;5.392;2023-02-21T12:20:25;14.772;;;5.920001;;
59986;SDS011;46181;51.498;5.392;2023-02-21T12:24:59;14.888;;;6.18;;
59986;SDS011;46181;51.498;5.392;2023-02-21T12:29:22;13.904;;;6.092;;
59986;SDS011;46181;51.498;5.392;2023-02-21T12:33:50;12.5;;;5.404001;;
59986;SDS011;46181;51.498;5.392;2023-02-21T12:38:21;11.984;;;5.476;;
59986;SDS011;46181;51.498;5.392;2023-02-21T12:43:07;10.424;;;4.844;;
59986;SDS011;46181;51.498;5.392;2023-02-21T12:47:18;12.484;;;5.056;;
59986;SDS011;46181;51.498;5.392;2023-02-21T12:51:50;11.04;;;4.639999;;
59986;SDS011;46181;51.498;5.392;2023-02-21T12:56:19;10.948;;;4.972;;
59986;SDS011;46181;51.498;5.392;2023-02-21T13:00:50;9.960001;;;4.872;;
59986;SDS011;46181;51.498;5.392;2023-02-21T13:05:20;12.38;;;5.071999;;
59986;SDS011;46181;51.498;5.392;2023-02-21T13:09:49;11.616;;;5.675999;;
59986;SDS011;46181;51.498;5.392;2023-02-21T13:14:21;11.712;;;4.86;;
59986;SDS011;46181;51.498;5.392;2023-02-21T13:18:49;11.492;;;5.532;;
59986;SDS011;46181;51.498;5.392;2023-02-21T13:23:18;12.44;;;5.280001;;
59986;SDS011;46181;51.498;5.392;2023-02-21T13:27:54;13.016;;;5.92;;
59986;SDS011;46181;51.498;5.392;2023-02-21T13:32:18;13.012;;;6.052;;
59986;SDS011;46181;51.498;5.392;2023-02-21T13:36:48;11.48;;;5.272;;
59986;SDS011;46181;51.498;5.392;2023-02-21T13:41:18;13.6;;;6.195999;;
59986;SDS011;46181;51.498;5.392;2023-02-21T13:45:48;13.072;;;6.108;;
59986;SDS011;46181;51.498;5.392;2023-02-21T14:03:49;14.1;;;6.508;;
59986;SDS011;46181;51.498;5.392;2023-02-21T14:08:18;13.584;;;6.62;;
59986;SDS011;46181;51.498;5.392;2023-02-21T14:12:48;14.82;;;6.372;;
59986;SDS011;46181;51.498;5.392;2023-02-21T14:17:18;15.912;;;6.968;;
59986;SDS011;46181;51.498;5.392;2023-02-21T14:21:50;14.984;;;6.643999;;
59986;SDS011;46181;51.498;5.392;2023-02-21T14:30:48;19.232;;;7.756;;
59986;SDS011;46181;51.498;5.392;2023-02-21T14:35:25;18.092;;;7.568;;
59986;SDS011;46181;51.498;5.392;2023-02-21T14:39:50;16.62;;;7.791999;;
59986;SDS011;46181;51.498;5.392;2023-02-21T14:44:21;17.704;;;8.272001;;
59986;SDS011;46181;51.498;5.392;2023-02-21T14:49:00;20.296;;;8.188;;
59986;SDS011;46181;51.498;5.392;2023-02-21T14:57:56;21.172;;;9.195999;;
59986;SDS011;46181;51.498;5.392;2023-02-21T15:02:21;23.32;;;9.584001;;
59986;SDS011;46181;51.498;5.392;2023-02-21T15:06:51;21.988;;;9.296001;;
59986;SDS011;46181;51.498;5.392;2023-02-21T15:11:21;23.744;;;10.408;;
59986;SDS011;46181;51.498;5.392;2023-02-21T15:15:53;19.188;;;8.716001;;
59986;SDS011;46181;51.498;5.392;2023-02-21T15:20:19;21.216;;;10.012;;
59986;SDS011;46181;51.498;5.392;2023-02-21T15:25:10;25.04401;;;10.864;;
59986;SDS011;46181;51.498;5.392;2023-02-21T15:29:18;23.032;;;9.992001;;
59986;SDS011;46181;51.498;5.392;2023-02-21T15:33:50;21.548;;;10.052;;
59986;SDS011;46181;51.498;5.392;2023-02-21T15:38:20;21.404;;;9.407999;;
59986;SDS011;46181;51.498;5.392;2023-02-21T15:42:49;22.116;;;9.124001;;
59986;SDS011;46181;51.498;5.392;2023-02-21T15:47:19;20.3;;;9.460001;;
59986;SDS011;46181;51.498;5.392;2023-02-21T15:51:48;20.728;;;9.204;;
59986;SDS011;46181;51.498;5.392;2023-02-21T15:56:23;18.18;;;8.452;;
59986;SDS011;46181;51.498;5.392;2023-02-21T16:00:49;19.576;;;8.464002;;
59986;SDS011;46181;51.498;5.392;2023-02-21T16:05:26;17.432;;;8.344001;;
59986;SDS011;46181;51.498;5.392;2023-02-21T16:09:49;18.036;;;8.191999;;
59986;SDS011;46181;51.498;5.392;2023-02-21T16:14:21;19.996;;;9.484001;;
59986;SDS011;46181;51.498;5.392;2023-02-21T16:18:48;23.116;;;9.476;;
59986;SDS011;46181;51.498;5.392;2023-02-21T16:23:29;21.504;;;9.84;;
59986;SDS011;46181;51.498;5.392;2023-02-21T16:27:49;21.072;;;9.944001;;
59986;SDS011;46181;51.498;5.392;2023-02-21T16:32:19;22.444;;;9.711999;;
59986;SDS011;46181;51.498;5.392;2023-02-21T16:36:48;23.112;;;9.891999;;
59986;SDS011;46181;51.498;5.392;2023-02-21T16:41:18;21.456;;;9.704001;;
59986;SDS011;46181;51.498;5.392;2023-02-21T16:45:49;20.908;;;8.804;;
59986;SDS011;46181;51.498;5.392;2023-02-21T16:50:20;18.448;;;8.692;;
59986;SDS011;46181;51.498;5.392;2023-02-21T16:54:48;22.048;;;9.935998;;
59986;SDS011;46181;51.498;5.392;2023-02-21T16:59:19;21.224;;;9.792;;
59986;SDS011;46181;51.498;5.392;2023-02-21T17:03:48;19.412;;;9.14;;
59986;SDS011;46181;51.498;5.392;2023-02-21T17:08:18;19.948;;;9.056001;;
59986;SDS011;46181;51.498;5.392;2023-02-21T17:12:48;18.94;;;8.156001;;
59986;SDS011;46181;51.498;5.392;2023-02-21T17:17:19;17.26;;;7.748;;
59986;SDS011;46181;51.498;5.392;2023-02-21T17:21:48;16.628;;;7.607999;;
59986;SDS011;46181;51.498;5.392;2023-02-21T17:26:19;18.756;;;8.291999;;
59986;SDS011;46181;51.498;5.392;2023-02-21T17:30:49;20.744;;;8.027999;;
59986;SDS011;46181;51.498;5.392;2023-02-21T17:35:19;16.844;;;8.011999;;
59986;SDS011;46181;51.498;5.392;2023-02-21T17:39:50;16.844;;;7.908001;;
59986;SDS011;46181;51.498;5.392;2023-02-21T17:44:19;18.696;;;8.707998;;
59986;SDS011;46181;51.498;5.392;2023-02-21T17:48:49;17.148;;;8.452;;
59986;SDS011;46181;51.498;5.392;2023-02-21T17:53:19;17.124;;;8.187999;;
59986;SDS011;46181;51.498;5.392;2023-02-21T17:57:49;16.676;;;7.876;;
59986;SDS011;46181;51.498;5.392;2023-02-21T18:02:19;17.396;;;8.420001;;
59986;SDS011;46181;51.498;5.392;2023-02-21T18:06:49;16.272;;;7.663999;;
59986;SDS011;46181;51.498;5.392;2023-02-21T18:11:19;14.332;;;7.460001;;
59986;SDS011;46181;51.498;5.392;2023-02-21T18:15:49;17;;;8.048;;
59986;SDS011;46181;51.498;5.392;2023-02-21T18:20:19;18.04;;;8.492001;;
59986;SDS011;46181;51.498;5.392;2023-02-21T18:24:49;17.712;;;8.251999;;
59986;SDS011;46181;51.498;5.392;2023-02-21T18:29:19;16.012;;;8.792001;;
59986;SDS011;46181;51.498;5.392;2023-02-21T18:33:49;17.736;;;8.948001;;
59986;SDS011;46181;51.498;5.392;2023-02-21T18:38:19;17.036;;;9.256;;
59986;SDS011;46181;51.498;5.392;2023-02-21T18:42:49;20.016;;;9.759997;;
59986;SDS011;46181;51.498;5.392;2023-02-21T18:47:19;19.212;;;9.268;;
59986;SDS011;46181;51.498;5.392;2023-02-21T18:51:49;17.448;;;9.064;;
59986;SDS011;46181;51.498;5.392;2023-02-21T18:56:19;18.06;;;8.62;;
59986;SDS011;46181;51.498;5.392;2023-02-21T19:00:49;16.604;;;8.615999;;
59986;SDS011;46181;51.498;5.392;2023-02-21T19:05:20;19.596;;;10;;
59986;SDS011;46181;51.498;5.392;2023-02-21T19:09:49;17.488;;;9.344;;
59986;SDS011;46181;51.498;5.392;2023-02-21T19:14:19;20.236;;;9.540001;;
59986;SDS011;46181;51.498;5.392;2023-02-21T19:18:49;20.596;;;9.9;;
59986;SDS011;46181;51.498;5.392;2023-02-21T19:23:19;19.616;;;9.952;;
59986;SDS011;46181;51.498;5.392;2023-02-21T19:27:49;20.804;;;9.956001;;
59986;SDS011;46181;51.498;5.392;2023-02-21T19:32:19;20.424;;;10.204;;
59986;SDS011;46181;51.498;5.392;2023-02-21T19:36:49;23.2;;;12.36;;
59986;SDS011;46181;51.498;5.392;2023-02-21T19:41:19;24.5;;;11.232;;
59986;SDS011;46181;51.498;5.392;2023-02-21T19:45:49;22.528;;;10.744;;
59986;SDS011;46181;51.498;5.392;2023-02-21T19:50:19;27.148;;;12.656;;
59986;SDS011;46181;51.498;5.392;2023-02-21T19:54:49;25.944;;;11.624;;
59986;SDS011;46181;51.498;5.392;2023-02-21T19:59:19;22.156;;;10.616;;
59986;SDS011;46181;51.498;5.392;2023-02-21T20:03:49;27.604;;;12.74;;
59986;SDS011;46181;51.498;5.392;2023-02-21T20:08:19;27.36799;;;11.836;;
59986;SDS011;46181;51.498;5.392;2023-02-21T20:12:49;30.12801;;;13.476;;
59986;SDS011;46181;51.498;5.392;2023-02-21T20:17:19;31.368;;;13.176;;
59986;SDS011;46181;51.498;5.392;2023-02-21T20:21:49;35.472;;;13.78;;
59986;SDS011;46181;51.498;5.392;2023-02-21T20:26:19;34.86;;;14.792;;
59986;SDS011;46181;51.498;5.392;2023-02-21T20:30:49;35.052;;;15.648;;
59986;SDS011;46181;51.498;5.392;2023-02-21T20:35:19;32.472;;;13.86;;
59986;SDS011;46181;51.498;5.392;2023-02-21T20:39:50;34.888;;;15.056;;
59986;SDS011;46181;51.498;5.392;2023-02-21T20:44:19;34.916;;;15.424;;
59986;SDS011;46181;51.498;5.392;2023-02-21T20:48:49;36.47599;;;15.172;;
59986;SDS011;46181;51.498;5.392;2023-02-21T20:53:19;33.812;;;14.732;;
59986;SDS011;46181;51.498;5.392;2023-02-21T20:57:49;34.372;;;14.688;;
59986;SDS011;46181;51.498;5.392;2023-02-21T21:02:19;31.72;;;13.056;;
59986;SDS011;46181;51.498;5.392;2023-02-21T21:06:49;29.928;;;12.496;;
59986;SDS011;46181;51.498;5.392;2023-02-21T21:11:19;31.828;;;12.812;;
59986;SDS011;46181;51.498;5.392;2023-02-21T21:15:49;31.164;;;13.44;;
59986;SDS011;46181;51.498;5.392;2023-02-21T21:20:19;28.532;;;12.596;;
59986;SDS011;46181;51.498;5.392;2023-02-21T21:24:49;30.02;;;12.848;;
59986;SDS011;46181;51.498;5.392;2023-02-21T21:29:19;31.74;;;13.248;;
59986;SDS011;46181;51.498;5.392;2023-02-21T21:33:49;26.864;;;12.264;;
59986;SDS011;46181;51.498;5.392;2023-02-21T21:38:19;27.196;;;11.848;;
59986;SDS011;46181;51.498;5.392;2023-02-21T21:42:50;28.384;;;12.452;;
59986;SDS011;46181;51.498;5.392;2023-02-21T21:47:19;29.456;;;12.82;;
59986;SDS011;46181;51.498;5.392;2023-02-21T21:51:49;29.524;;;13.048;;
59986;SDS011;46181;51.498;5.392;2023-02-21T21:56:20;27.412;;;11.516;;
59986;SDS011;46181;51.498;5.392;2023-02-21T22:00:49;26.788;;;12.384;;
59986;SDS011;46181;51.498;5.392;2023-02-21T22:05:19;29.044;;;11.848;;
59986;SDS011;46181;51.498;5.392;2023-02-21T22:09:49;27.512;;;12.06;;
59986;SDS011;46181;51.498;5.392;2023-02-21T22:14:19;27.772;;;11.2;;
59986;SDS011;46181;51.498;5.392;2023-02-21T22:18:49;27.68;;;11.968;;
59986;SDS011;46181;51.498;5.392;2023-02-21T22:23:19;28.36;;;12.168;;
59986;SDS011;46181;51.498;5.392;2023-02-21T22:27:49;29.676;;;12.648;;
59986;SDS011;46181;51.498;5.392;2023-02-21T22:32:19;27.984;;;12.62;;
59986;SDS011;46181;51.498;5.392;2023-02-21T22:36:49;29.968;;;11.916;;
59986;SDS011;46181;51.498;5.392;2023-02-21T22:41:21;28.616;;;11.976;;
59986;SDS011;46181;51.498;5.392;2023-02-21T22:45:49;25.952;;;12.224;;
59986;SDS011;46181;51.498;5.392;2023-02-21T22:50:19;28.496;;;12.252;;
59986;SDS011;46181;51.498;5.392;2023-02-21T22:54:49;28.256;;;12.468;;
59986;SDS011;46181;51.498;5.392;2023-02-21T22:59:19;28.68;;;11.956;;
59986;SDS011;46181;51.498;5.392;2023-02-21T23:03:49;29.724;;;12.684;;
59986;SDS011;46181;51.498;5.392;2023-02-21T23:08:19;25.664;;;11.744;;
59986;SDS011;46181;51.498;5.392;2023-02-21T23:12:49;26.108;;;11.84;;
59986;SDS011;46181;51.498;5.392;2023-02-21T23:17:19;25.608;;;12.236;;
59986;SDS011;46181;51.498;5.392;2023-02-21T23:21:50;26.84;;;11.584;;
59986;SDS011;46181;51.498;5.392;2023-02-21T23:26:19;29.996;;;12.524;;
59986;SDS011;46181;51.498;5.392;2023-02-21T23:30:49;30.008;;;13.384;;
59986;SDS011;46181;51.498;5.392;2023-02-21T23:35:19;30.76;;;12.78;;
59986;SDS011;46181;51.498;5.392;2023-02-21T23:39:49;27.5;;;13.22;;
59986;SDS011;46181;51.498;5.392;2023-02-21T23:44:19;27.136;;;12.184;;
59986;SDS011;46181;51.498;5.392;2023-02-21T23:48:49;27.1;;;12.564;;
59986;SDS011;46181;51.498;5.392;2023-02-21T23:53:19;27.984;;;12.384;;
59986;SDS011;46181;51.498;5.392;2023-02-21T23:57:49;28.732;;;12.6;;
